createdAt,value
2018-04-04T00:00:33.189Z,9.50
2018-04-04T00:01:33.186Z,9.40
2018-04-04T00:02:33.185Z,9.90
2018-04-04T00:03:33.179Z,8.90
2018-04-04T00:04:33.173Z,8.80
2018-04-04T00:05:33.166Z,9.80
2018-04-04T00:06:33.166Z,9.70
2018-04-04T00:07:33.169Z,9.90
2018-04-04T00:08:33.152Z,9.70
2018-04-04T00:09:33.149Z,9.50
2018-04-04T00:10:33.147Z,9.40
2018-04-04T00:11:33.139Z,9.90
2018-04-04T00:12:33.134Z,10.10
2018-04-04T00:13:33.132Z,9.70
2018-04-04T00:14:33.126Z,9.50
2018-04-04T00:15:33.120Z,9.70
2018-04-04T00:16:33.116Z,9.80
2018-04-04T00:17:33.114Z,9.80
2018-04-04T00:18:33.107Z,9.80
2018-04-04T00:19:33.101Z,9.70
2018-04-04T00:20:33.102Z,9.10
2018-04-04T00:21:33.098Z,9.60
2018-04-04T00:22:33.093Z,9.50
2018-04-04T00:23:33.084Z,9.70
2018-04-04T00:24:33.083Z,9.30
2018-04-04T00:25:33.078Z,9.10
2018-04-04T00:26:33.071Z,9.10
2018-04-04T00:27:33.066Z,9.80
2018-04-04T00:28:33.067Z,9.20
2018-04-04T00:29:33.056Z,10.00
2018-04-04T00:30:33.052Z,9.80
2018-04-04T00:31:33.045Z,9.90
2018-04-04T00:32:33.044Z,10.00
2018-04-04T00:33:33.040Z,9.70
2018-04-04T00:34:33.032Z,9.40
2018-04-04T00:35:33.027Z,8.70
2018-04-04T00:36:33.022Z,9.50
2018-04-04T00:37:33.016Z,9.60
2018-04-04T00:38:33.014Z,9.90
2018-04-04T00:39:33.013Z,9.20
2018-04-04T00:40:33.007Z,9.70
2018-04-04T00:41:32.997Z,9.20
2018-04-04T00:42:32.992Z,9.40
2018-04-04T00:43:32.986Z,9.50
2018-04-04T00:44:32.985Z,9.40
2018-04-04T00:45:32.980Z,9.80
2018-04-04T00:46:32.975Z,9.30
2018-04-04T00:47:32.975Z,9.40
2018-04-04T00:48:32.962Z,9.80
2018-04-04T00:49:32.956Z,8.90
2018-04-04T00:50:32.987Z,8.70
2018-04-04T00:51:32.947Z,8.00
2018-04-04T00:52:32.943Z,8.60
2018-04-04T00:53:32.942Z,8.20
2018-04-04T00:54:32.934Z,9.30
2018-04-04T00:55:32.926Z,7.70
2018-04-04T00:56:32.920Z,8.20
2018-04-04T00:57:32.922Z,8.90
2018-04-04T00:58:32.914Z,7.90
2018-04-04T00:59:32.908Z,7.80
2018-04-04T01:00:32.900Z,8.80
2018-04-04T01:01:32.895Z,8.50
2018-04-04T01:02:32.889Z,8.60
2018-04-04T01:03:32.882Z,9.40
2018-04-04T01:04:32.884Z,8.40
2018-04-04T01:05:32.876Z,8.80
2018-04-04T01:06:32.869Z,8.40
2018-04-04T01:07:32.862Z,9.10
2018-04-04T01:08:32.857Z,9.20
2018-04-04T01:09:32.856Z,8.60
2018-04-04T01:10:32.846Z,8.70
2018-04-04T01:11:32.841Z,8.50
2018-04-04T01:12:32.838Z,9.50
2018-04-04T01:13:32.829Z,9.10
2018-04-04T01:14:32.825Z,9.40
2018-04-04T01:15:32.818Z,9.50
2018-04-04T01:16:32.817Z,9.40
2018-04-04T01:17:32.811Z,9.40
2018-04-04T01:18:32.806Z,9.20
2018-04-04T01:19:32.801Z,9.30
2018-04-04T01:20:32.791Z,9.00
2018-04-04T01:21:32.785Z,8.90
2018-04-04T01:22:32.780Z,8.70
2018-04-04T01:23:32.780Z,8.60
2018-04-04T01:24:32.769Z,8.40
2018-04-04T01:25:32.785Z,8.90
2018-04-04T01:26:32.760Z,8.90
2018-04-04T01:27:32.752Z,8.50
2018-04-04T01:28:32.753Z,7.80
2018-04-04T01:29:32.742Z,8.60
2018-04-04T01:30:32.742Z,9.00
2018-04-04T01:31:32.735Z,8.70
2018-04-04T01:32:32.724Z,8.60
2018-04-04T01:33:32.719Z,8.30
2018-04-04T01:34:32.715Z,8.70
2018-04-04T01:35:32.708Z,8.60
2018-04-04T01:36:32.703Z,8.80
2018-04-04T01:37:32.698Z,8.80
2018-04-04T01:38:32.695Z,8.50
2018-04-04T01:39:32.689Z,8.80
2018-04-04T01:40:32.685Z,8.20
2018-04-04T01:41:32.674Z,8.60
2018-04-04T01:42:32.673Z,9.40
2018-04-04T01:43:32.667Z,9.40
2018-04-04T01:44:32.657Z,9.10
2018-04-04T01:45:32.651Z,9.30
2018-04-04T01:46:32.646Z,9.10
2018-04-04T01:47:32.641Z,10.50
2018-04-04T01:48:32.634Z,10.00
2018-04-04T01:49:32.630Z,11.00
2018-04-04T01:50:32.626Z,11.00
2018-04-04T01:51:32.620Z,11.50
2018-04-04T01:52:32.612Z,10.50
2018-04-04T01:53:32.608Z,11.00
2018-04-04T01:54:32.601Z,10.70
2018-04-04T01:55:32.595Z,10.90
2018-04-04T01:56:32.594Z,10.90
2018-04-04T01:57:32.588Z,9.50
2018-04-04T01:58:32.578Z,9.40
2018-04-04T01:59:32.573Z,8.90
2018-04-04T02:00:32.571Z,8.30
2018-04-04T02:01:32.567Z,8.90
2018-04-04T02:02:32.556Z,8.70
2018-04-04T02:03:32.550Z,8.80
2018-04-04T02:04:32.545Z,8.90
2018-04-04T02:05:32.540Z,8.10
2018-04-04T02:06:32.534Z,8.10
2018-04-04T02:07:32.528Z,8.60
2018-04-04T02:08:32.522Z,7.30
2018-04-04T02:09:32.516Z,8.00
2018-04-04T02:10:32.515Z,8.00
2018-04-04T02:11:32.508Z,8.90
2018-04-04T02:12:32.499Z,8.80
2018-04-04T02:13:32.494Z,8.50
2018-04-04T02:14:32.493Z,7.70
2018-04-04T02:15:32.490Z,8.20
2018-04-04T02:16:32.477Z,8.50
2018-04-04T02:17:32.470Z,8.40
2018-04-04T02:18:32.466Z,7.30
2018-04-04T02:19:32.459Z,7.60
2018-04-04T02:20:32.454Z,8.30
2018-04-04T02:21:32.448Z,8.40
2018-04-04T02:22:32.445Z,7.60
2018-04-04T02:23:32.436Z,8.10
2018-04-04T02:24:32.431Z,8.00
2018-04-04T02:25:32.425Z,7.90
2018-04-04T02:26:32.419Z,7.60
2018-04-04T02:27:32.412Z,8.30
2018-04-04T02:28:32.411Z,8.20
2018-04-04T02:29:32.405Z,7.90
2018-04-04T02:30:32.396Z,8.30
2018-04-04T02:31:32.396Z,8.10
2018-04-04T02:32:32.388Z,7.70
2018-04-04T02:33:32.386Z,7.90
2018-04-04T02:34:32.373Z,8.40
2018-04-04T02:35:32.367Z,8.10
2018-04-04T02:36:32.360Z,8.20
2018-04-04T02:37:32.355Z,8.10
2018-04-04T02:38:32.349Z,7.00
2018-04-04T02:39:32.342Z,7.80
2018-04-04T02:40:32.337Z,7.00
2018-04-04T02:41:32.331Z,7.60
2018-04-04T02:42:32.329Z,7.70
2018-04-04T02:43:32.324Z,7.70
2018-04-04T02:44:32.313Z,7.80
2018-04-04T02:45:32.307Z,8.60
2018-04-04T02:46:32.305Z,8.30
2018-04-04T02:47:32.305Z,7.50
2018-04-04T02:48:32.296Z,6.30
2018-04-04T02:49:32.284Z,8.10
2018-04-04T02:50:32.278Z,7.10
2018-04-04T02:51:32.271Z,8.20
2018-04-04T02:52:32.266Z,7.70
2018-04-04T02:53:32.259Z,6.90
2018-04-04T02:54:32.253Z,7.90
2018-04-04T02:55:32.251Z,7.60
2018-04-04T02:56:32.242Z,8.10
2018-04-04T02:57:32.246Z,7.30
2018-04-04T02:58:32.232Z,7.70
2018-04-04T02:59:32.222Z,7.80
2018-04-04T03:00:32.220Z,7.50
2018-04-04T03:01:32.214Z,7.70
2018-04-04T03:02:32.204Z,7.60
2018-04-04T03:03:32.198Z,8.60
2018-04-04T03:04:32.195Z,7.70
2018-04-04T03:05:32.189Z,7.90
2018-04-04T03:06:32.181Z,7.70
2018-04-04T03:07:32.173Z,8.20
2018-04-04T03:08:32.167Z,8.20
2018-04-04T03:09:32.162Z,8.00
2018-04-04T03:10:32.156Z,7.90
2018-04-04T03:11:32.149Z,7.70
2018-04-04T03:12:32.143Z,8.10
2018-04-04T03:13:32.137Z,8.00
2018-04-04T03:14:32.135Z,8.40
2018-04-04T03:15:32.127Z,8.00
2018-04-04T03:16:32.121Z,8.00
2018-04-04T03:17:32.111Z,8.50
2018-04-04T03:18:32.110Z,8.70
2018-04-04T03:19:32.103Z,8.40
2018-04-04T03:20:32.093Z,8.90
2018-04-04T03:21:32.087Z,8.10
2018-04-04T03:22:32.099Z,7.60
2018-04-04T03:23:32.074Z,7.80
2018-04-04T03:24:32.069Z,8.20
2018-04-04T03:25:32.061Z,8.40
2018-04-04T03:26:32.057Z,8.00
2018-04-04T03:27:32.049Z,7.70
2018-04-04T03:28:32.043Z,7.80
2018-04-04T03:29:32.037Z,8.00
2018-04-04T03:30:32.034Z,7.70
2018-04-04T03:31:32.025Z,8.10
2018-04-04T03:32:32.023Z,8.80
2018-04-04T03:33:32.017Z,8.30
2018-04-04T03:34:32.007Z,7.50
2018-04-04T03:35:32.000Z,7.50
2018-04-04T03:36:31.997Z,8.30
2018-04-04T03:37:31.991Z,7.70
2018-04-04T03:38:31.981Z,7.70
2018-04-04T03:39:31.974Z,7.70
2018-04-04T03:40:31.968Z,8.00
2018-04-04T03:41:31.962Z,8.00
2018-04-04T03:42:31.956Z,8.20
2018-04-04T03:43:31.950Z,8.30
2018-04-04T03:44:31.946Z,7.90
2018-04-04T03:45:31.946Z,8.30
2018-04-04T03:46:31.931Z,7.60
2018-04-04T03:47:31.924Z,7.80
2018-04-04T03:48:31.917Z,8.10
2018-04-04T03:49:31.911Z,7.60
2018-04-04T03:50:31.906Z,8.30
2018-04-04T03:51:31.903Z,8.10
2018-04-04T03:52:31.892Z,7.80
2018-04-04T03:53:31.886Z,7.90
2018-04-04T03:54:31.880Z,7.90
2018-04-04T03:55:31.875Z,8.30
2018-04-04T03:56:31.871Z,8.90
2018-04-04T03:57:31.867Z,8.50
2018-04-04T03:58:31.863Z,8.30
2018-04-04T03:59:31.852Z,8.30
2018-04-04T04:00:31.841Z,8.10
2018-04-04T04:01:31.835Z,7.50
2018-04-04T04:02:31.830Z,6.90
2018-04-04T04:03:31.823Z,6.30
2018-04-04T04:04:31.816Z,7.80
2018-04-04T04:05:31.810Z,8.20
2018-04-04T04:06:31.804Z,7.10
2018-04-04T04:07:31.798Z,7.90
2018-04-04T04:08:31.791Z,8.60
2018-04-04T04:09:31.786Z,7.40
2018-04-04T04:10:31.783Z,8.30
2018-04-04T04:11:31.776Z,7.20
2018-04-04T04:12:31.764Z,7.20
2018-04-04T04:13:31.759Z,8.20
2018-04-04T04:14:31.753Z,8.20
2018-04-04T04:15:31.746Z,8.30
2018-04-04T04:16:31.742Z,7.90
2018-04-04T04:17:31.737Z,7.60
2018-04-04T04:18:31.728Z,9.20
2018-04-04T04:19:31.721Z,8.10
2018-04-04T04:20:31.714Z,8.70
2018-04-04T04:21:31.711Z,8.70
2018-04-04T04:22:31.701Z,8.90
2018-04-04T04:23:31.694Z,8.40
2018-04-04T04:24:31.687Z,9.70
2018-04-04T04:25:31.682Z,8.20
2018-04-04T04:26:31.676Z,8.60
2018-04-04T04:27:31.667Z,9.00
2018-04-04T04:28:31.665Z,8.30
2018-04-04T04:29:31.659Z,8.40
2018-04-04T04:30:31.673Z,8.40
2018-04-04T04:31:31.646Z,9.40
2018-04-04T04:32:31.635Z,8.90
2018-04-04T04:33:31.631Z,9.10
2018-04-04T04:34:31.622Z,9.00
2018-04-04T04:35:31.615Z,8.90
2018-04-04T04:36:31.608Z,8.40
2018-04-04T04:37:31.602Z,8.60
2018-04-04T04:38:31.596Z,8.80
2018-04-04T04:39:31.589Z,9.00
2018-04-04T04:40:31.583Z,8.80
2018-04-04T04:41:31.575Z,8.80
2018-04-04T04:42:31.572Z,9.50
2018-04-04T04:43:31.566Z,8.90
2018-04-04T04:44:31.556Z,8.90
2018-04-04T04:45:31.555Z,8.90
2018-04-04T04:46:31.542Z,9.20
2018-04-04T04:47:31.538Z,8.90
2018-04-04T04:48:31.530Z,7.90
2018-04-04T04:49:31.536Z,8.40
2018-04-04T04:50:31.547Z,8.80
2018-04-04T04:51:31.513Z,8.20
2018-04-04T04:52:31.500Z,7.90
2018-04-04T04:53:31.494Z,8.70
2018-04-04T04:54:31.492Z,8.50
2018-04-04T04:55:31.484Z,8.00
2018-04-04T04:56:31.475Z,8.70
2018-04-04T04:57:31.467Z,9.10
2018-04-04T04:58:31.460Z,8.40
2018-04-04T04:59:31.452Z,9.20
2018-04-04T05:00:31.447Z,7.70
2018-04-04T05:01:31.440Z,8.30
2018-04-04T05:02:31.439Z,7.90
2018-04-04T05:03:31.425Z,8.60
2018-04-04T05:04:31.419Z,8.90
2018-04-04T05:05:31.413Z,8.70
2018-04-04T05:06:31.406Z,8.60
2018-04-04T05:07:31.397Z,8.20
2018-04-04T05:08:31.395Z,7.80
2018-04-04T05:09:31.388Z,9.20
2018-04-04T05:10:31.377Z,8.20
2018-04-04T05:11:31.370Z,8.90
2018-04-04T05:12:31.368Z,8.80
2018-04-04T05:13:31.362Z,8.60
2018-04-04T05:14:31.377Z,9.00
2018-04-04T05:15:31.344Z,8.40
2018-04-04T05:16:31.337Z,8.10
2018-04-04T05:17:31.332Z,7.50
2018-04-04T05:18:31.324Z,8.70
2018-04-04T05:19:31.320Z,8.30
2018-04-04T05:20:31.334Z,8.40
2018-04-04T05:21:31.304Z,8.30
2018-04-04T05:22:31.307Z,8.60
2018-04-04T05:23:31.293Z,8.50
2018-04-04T05:24:31.284Z,7.30
2018-04-04T05:25:31.277Z,6.60
2018-04-04T05:26:31.275Z,7.90
2018-04-04T05:27:31.273Z,8.10
2018-04-04T05:28:31.263Z,7.90
2018-04-04T05:29:31.251Z,8.10
2018-04-04T05:30:31.250Z,8.50
2018-04-04T05:31:31.240Z,8.50
2018-04-04T05:32:31.232Z,8.00
2018-04-04T05:33:31.227Z,9.10
2018-04-04T05:34:31.222Z,9.20
2018-04-04T05:35:31.214Z,9.40
2018-04-04T05:36:31.209Z,9.80
2018-04-04T05:37:31.205Z,9.80
2018-04-04T05:38:31.198Z,10.00
2018-04-04T05:39:31.192Z,9.90
2018-04-04T05:40:31.191Z,10.50
2018-04-04T05:41:31.186Z,10.60
2018-04-04T05:42:31.178Z,10.30
2018-04-04T05:43:31.172Z,9.60
2018-04-04T05:44:31.171Z,10.20
2018-04-04T05:45:31.169Z,9.70
2018-04-04T05:46:31.160Z,10.60
2018-04-04T05:47:31.155Z,10.40
2018-04-04T05:48:31.150Z,10.60
2018-04-04T05:49:31.147Z,10.80
2018-04-04T05:50:31.142Z,10.50
2018-04-04T05:51:31.138Z,11.20
2018-04-04T05:52:31.138Z,9.90
2018-04-04T05:53:31.134Z,10.60
2018-04-04T05:54:31.127Z,10.70
2018-04-04T05:55:31.120Z,10.50
2018-04-04T05:56:31.119Z,9.70
2018-04-04T05:57:31.113Z,11.10
2018-04-04T05:58:31.129Z,9.60
2018-04-04T05:59:31.104Z,10.80
2018-04-04T06:00:31.100Z,10.90
2018-04-04T06:01:31.096Z,11.30
2018-04-04T06:02:31.093Z,10.60
2018-04-04T06:03:31.088Z,9.20
2018-04-04T06:04:31.088Z,10.40
2018-04-04T06:05:31.085Z,10.60
2018-04-04T06:06:31.080Z,10.60
2018-04-04T06:07:31.074Z,9.50
2018-04-04T06:08:31.066Z,10.40
2018-04-04T06:09:31.062Z,9.50
2018-04-04T06:10:31.060Z,9.50
2018-04-04T06:11:31.053Z,9.30
2018-04-04T06:12:31.049Z,9.70
2018-04-04T06:13:31.049Z,8.20
2018-04-04T06:14:31.041Z,9.80
2018-04-04T06:15:31.034Z,9.90
2018-04-04T06:16:31.032Z,9.90
2018-04-04T06:17:31.025Z,10.00
2018-04-04T06:18:31.030Z,9.40
2018-04-04T06:19:31.019Z,9.10
2018-04-04T06:20:31.010Z,9.50
2018-04-04T06:21:31.006Z,8.10
2018-04-04T06:22:31.002Z,8.70
2018-04-04T06:23:30.996Z,9.60
2018-04-04T06:24:30.995Z,9.80
2018-04-04T06:25:30.991Z,9.00
2018-04-04T06:26:30.982Z,8.60
2018-04-04T06:27:30.976Z,9.40
2018-04-04T06:28:30.971Z,9.20
2018-04-04T06:29:30.970Z,9.10
2018-04-04T06:30:30.961Z,8.50
2018-04-04T06:31:30.962Z,9.40
2018-04-04T06:32:30.953Z,9.10
2018-04-04T06:33:30.946Z,9.50
2018-04-04T06:34:30.942Z,9.00
2018-04-04T06:35:30.936Z,8.80
2018-04-04T06:36:30.935Z,8.70
2018-04-04T06:37:30.932Z,7.60
2018-04-04T06:38:30.927Z,9.10
2018-04-04T06:39:30.919Z,9.10
2018-04-04T06:40:30.910Z,9.20
2018-04-04T06:41:30.905Z,9.40
2018-04-04T06:42:30.902Z,8.90
2018-04-04T06:43:30.895Z,9.60
2018-04-04T06:44:30.940Z,9.60
2018-04-04T06:45:30.888Z,9.40
2018-04-04T06:46:30.881Z,8.90
2018-04-04T06:47:30.875Z,8.90
2018-04-04T06:48:30.870Z,8.70
2018-04-04T06:49:30.865Z,9.60
2018-04-04T06:50:30.863Z,9.70
2018-04-04T06:51:30.859Z,10.00
2018-04-04T06:52:30.854Z,9.70
2018-04-04T06:53:30.844Z,9.10
2018-04-04T06:54:30.839Z,8.40
2018-04-04T06:55:30.833Z,8.80
2018-04-04T06:56:30.827Z,9.60
2018-04-04T06:57:30.823Z,9.30
2018-04-04T06:58:30.817Z,10.20
2018-04-04T06:59:30.811Z,11.00
2018-04-04T07:00:30.810Z,10.30
2018-04-04T07:01:30.805Z,9.80
2018-04-04T07:02:30.795Z,8.50
2018-04-04T07:03:30.789Z,7.70
2018-04-04T07:04:30.788Z,7.90
2018-04-04T07:05:30.784Z,9.10
2018-04-04T07:06:30.775Z,8.70
2018-04-04T07:07:30.839Z,8.50
2018-04-04T07:08:30.763Z,8.10
2018-04-04T07:09:30.758Z,8.10
2018-04-04T07:10:30.752Z,8.20
2018-04-04T07:11:30.746Z,7.80
2018-04-04T07:12:30.740Z,8.80
2018-04-04T07:13:30.735Z,8.50
2018-04-04T07:14:30.733Z,8.50
2018-04-04T07:15:30.729Z,8.40
2018-04-04T07:16:30.723Z,8.60
2018-04-04T07:17:30.713Z,7.80
2018-04-04T07:18:30.712Z,9.30
2018-04-04T07:19:30.706Z,10.00
2018-04-04T07:20:30.696Z,10.10
2018-04-04T07:21:30.692Z,10.60
2018-04-04T07:22:30.687Z,9.80
2018-04-04T07:23:30.680Z,10.30
2018-04-04T07:24:30.676Z,10.40
2018-04-04T07:25:30.674Z,10.00
2018-04-04T07:26:30.664Z,9.00
2018-04-04T07:27:30.657Z,10.10
2018-04-04T07:28:30.653Z,9.40
2018-04-04T07:29:30.646Z,9.60
2018-04-04T07:30:30.640Z,9.80
2018-04-04T07:31:30.634Z,9.00
2018-04-04T07:32:30.633Z,9.80
2018-04-04T07:33:30.627Z,9.70
2018-04-04T07:34:30.617Z,10.00
2018-04-04T07:35:30.617Z,9.10
2018-04-04T07:36:30.609Z,10.30
2018-04-04T07:37:30.603Z,8.80
2018-04-04T07:38:30.604Z,9.90
2018-04-04T07:39:30.590Z,8.50
2018-04-04T07:40:30.583Z,9.80
2018-04-04T07:41:30.576Z,9.80
2018-04-04T07:42:30.571Z,9.90
2018-04-04T07:43:30.564Z,9.80
2018-04-04T07:44:30.558Z,9.90
2018-04-04T07:45:30.552Z,9.50
2018-04-04T07:46:30.553Z,9.60
2018-04-04T07:47:30.543Z,10.40
2018-04-04T07:48:30.533Z,10.00
2018-04-04T07:49:30.529Z,8.90
2018-04-04T07:50:30.526Z,9.00
2018-04-04T07:51:30.519Z,9.00
2018-04-04T07:52:30.510Z,9.20
2018-04-04T07:53:30.505Z,9.10
2018-04-04T07:54:30.499Z,9.00
2018-04-04T07:55:30.494Z,10.00
2018-04-04T07:56:30.487Z,9.80
2018-04-04T07:57:30.481Z,9.30
2018-04-04T07:58:30.479Z,10.10
2018-04-04T07:59:30.472Z,11.10
2018-04-04T08:00:30.463Z,10.60
2018-04-04T08:01:30.459Z,10.50
2018-04-04T08:02:30.452Z,9.10
2018-04-04T08:03:30.445Z,9.80
2018-04-04T08:04:30.440Z,10.20
2018-04-04T08:05:30.436Z,10.50
2018-04-04T08:06:30.430Z,9.30
2018-04-04T08:07:30.424Z,9.40
2018-04-04T08:08:30.418Z,9.90
2018-04-04T08:09:30.417Z,8.90
2018-04-04T08:10:30.412Z,8.30
2018-04-04T08:11:30.406Z,7.60
2018-04-04T08:12:30.397Z,8.60
2018-04-04T08:13:30.391Z,8.30
2018-04-04T08:14:30.386Z,8.90
2018-04-04T08:15:30.400Z,9.00
2018-04-04T08:16:30.380Z,7.40
2018-04-04T08:17:30.375Z,8.70
2018-04-04T08:18:30.367Z,7.90
2018-04-04T08:19:30.361Z,8.00
2018-04-04T08:20:30.357Z,8.80
2018-04-04T08:21:30.354Z,8.80
2018-04-04T08:22:30.346Z,8.50
2018-04-04T08:23:30.342Z,7.80
2018-04-04T08:24:30.336Z,8.10
2018-04-04T08:25:30.333Z,8.60
2018-04-04T08:26:30.327Z,8.70
2018-04-04T08:27:30.322Z,8.60
2018-04-04T08:28:30.322Z,9.10
2018-04-04T08:29:30.319Z,8.20
2018-04-04T08:30:30.312Z,9.60
2018-04-04T08:31:30.307Z,9.50
2018-04-04T08:32:30.300Z,8.20
2018-04-04T08:33:30.295Z,9.20
2018-04-04T08:34:30.298Z,9.30
2018-04-04T08:35:30.286Z,9.20
2018-04-04T08:36:30.282Z,8.40
2018-04-04T08:37:30.279Z,8.60
2018-04-04T08:38:30.275Z,9.00
2018-04-04T08:39:30.269Z,8.40
2018-04-04T08:40:30.265Z,8.60
2018-04-04T08:41:30.263Z,9.80
2018-04-04T08:42:30.261Z,8.10
2018-04-04T08:43:30.256Z,8.10
2018-04-04T08:44:30.248Z,7.60
2018-04-04T08:45:30.244Z,7.80
2018-04-04T08:46:30.241Z,7.60
2018-04-04T08:47:30.294Z,7.30
2018-04-04T08:48:30.236Z,6.90
2018-04-04T08:49:30.232Z,6.60
2018-04-04T08:50:30.226Z,6.60
2018-04-04T08:51:30.218Z,6.60
2018-04-04T08:52:30.215Z,6.60
2018-04-04T08:53:30.211Z,6.30
2018-04-04T08:54:30.207Z,5.50
2018-04-04T08:55:30.208Z,6.10
2018-04-04T08:56:30.199Z,6.30
2018-04-04T08:57:30.193Z,5.90
2018-04-04T08:58:30.189Z,6.50
2018-04-04T08:59:30.191Z,5.50
2018-04-04T09:00:30.184Z,5.40
2018-04-04T09:01:30.180Z,5.70
2018-04-04T09:02:30.173Z,5.80
2018-04-04T09:03:30.167Z,5.60
2018-04-04T09:04:30.164Z,6.40
2018-04-04T09:05:30.159Z,5.60
2018-04-04T09:06:30.154Z,5.20
2018-04-04T09:07:30.150Z,5.50
2018-04-04T09:08:30.149Z,5.70
2018-04-04T09:09:30.145Z,5.30
2018-04-04T09:10:30.137Z,6.10
2018-04-04T09:11:30.133Z,5.20
2018-04-04T09:12:30.132Z,5.70
2018-04-04T09:13:30.130Z,5.90
2018-04-04T09:14:30.152Z,5.90
2018-04-04T09:15:30.114Z,6.60
2018-04-04T09:16:30.113Z,5.80
2018-04-04T09:17:30.106Z,6.00
2018-04-04T09:18:30.103Z,6.70
2018-04-04T09:19:30.101Z,6.90
2018-04-04T09:20:30.093Z,5.80
2018-04-04T09:21:30.090Z,5.30
2018-04-04T09:22:30.089Z,6.50
2018-04-04T09:23:30.084Z,7.10
2018-04-04T09:24:30.077Z,7.00
2018-04-04T09:25:30.072Z,7.00
2018-04-04T09:26:30.073Z,7.20
2018-04-04T09:27:30.068Z,8.00
2018-04-04T09:28:30.060Z,7.70
2018-04-04T09:29:30.061Z,7.90
2018-04-04T09:30:30.055Z,8.50
2018-04-04T09:31:30.051Z,9.60
2018-04-04T09:32:30.048Z,10.10
2018-04-04T09:33:30.046Z,9.90
2018-04-04T09:34:30.043Z,10.20
2018-04-04T09:35:30.040Z,8.70
2018-04-04T09:36:30.039Z,9.40
2018-04-04T09:37:30.037Z,10.20
2018-04-04T09:38:30.036Z,11.00
2018-04-04T09:39:30.032Z,11.00
2018-04-04T09:40:30.034Z,10.80
2018-04-04T09:41:30.035Z,11.50
2018-04-04T09:42:30.029Z,11.10
2018-04-04T09:43:30.028Z,11.40
2018-04-04T09:44:30.030Z,10.90
2018-04-04T09:45:30.030Z,11.00
2018-04-04T09:46:30.026Z,10.70
2018-04-04T09:47:30.027Z,10.50
2018-04-04T09:48:30.029Z,11.10
2018-04-04T09:49:30.070Z,10.80
2018-04-04T09:50:30.026Z,10.90
2018-04-04T09:51:30.021Z,10.50
2018-04-04T09:52:30.022Z,10.50
2018-04-04T09:53:30.021Z,10.80
2018-04-04T09:54:30.025Z,10.50
2018-04-04T09:55:30.024Z,10.40
2018-04-04T09:56:30.018Z,10.40
2018-04-04T09:57:30.019Z,10.10
2018-04-04T09:58:30.023Z,10.30
2018-04-04T09:59:30.020Z,8.80
2018-04-04T10:00:30.021Z,9.20
2018-04-04T10:01:30.014Z,9.40
2018-04-04T10:02:30.014Z,9.60
2018-04-04T10:03:30.012Z,8.40
2018-04-04T10:04:30.012Z,8.00
2018-04-04T10:05:30.009Z,9.10
2018-04-04T10:06:30.013Z,10.10
2018-04-04T10:07:30.011Z,10.00
2018-04-04T10:08:30.007Z,10.30
2018-04-04T10:09:30.008Z,10.20
2018-04-04T10:10:30.008Z,10.20
2018-04-04T10:11:30.008Z,10.20
2018-04-04T10:12:30.008Z,9.60
2018-04-04T10:13:30.010Z,9.90
2018-04-04T10:14:30.010Z,9.60
2018-04-04T10:15:30.011Z,9.80
2018-04-04T10:16:30.014Z,10.00
2018-04-04T10:17:30.016Z,10.00
2018-04-04T10:18:30.027Z,9.80
2018-04-04T10:19:30.024Z,8.90
2018-04-04T10:20:30.021Z,9.50
2018-04-04T10:21:30.030Z,9.50
2018-04-04T10:22:30.030Z,9.80
2018-04-04T10:23:30.029Z,10.30
2018-04-04T10:24:30.037Z,10.40
2018-04-04T10:25:30.039Z,10.70
2018-04-04T10:26:30.038Z,10.60
2018-04-04T10:27:30.047Z,10.70
2018-04-04T10:28:30.042Z,11.40
2018-04-04T10:29:30.047Z,11.90
2018-04-04T10:30:30.050Z,11.70
2018-04-04T10:31:30.050Z,11.60
2018-04-04T10:32:30.054Z,11.60
2018-04-04T10:33:30.055Z,10.90
2018-04-04T10:34:30.061Z,10.60
2018-04-04T10:35:30.060Z,10.40
2018-04-04T10:36:30.070Z,10.90
2018-04-04T10:37:30.069Z,10.90
2018-04-04T10:38:30.096Z,11.00
2018-04-04T10:39:30.073Z,11.30
2018-04-04T10:40:30.071Z,10.80
2018-04-04T10:41:30.072Z,10.60
2018-04-04T10:42:30.078Z,10.70
2018-04-04T10:43:30.077Z,10.50
2018-04-04T10:44:30.079Z,10.80
2018-04-04T10:45:30.080Z,11.30
2018-04-04T10:46:30.082Z,10.90
2018-04-04T10:47:30.083Z,11.30
2018-04-04T10:48:30.085Z,10.80
2018-04-04T10:49:30.086Z,10.50
2018-04-04T10:50:30.193Z,10.80
2018-04-04T10:51:30.091Z,10.40
2018-04-04T10:52:30.090Z,9.70
2018-04-04T10:53:30.091Z,10.40
2018-04-04T10:54:30.095Z,9.30
2018-04-04T10:55:30.092Z,10.30
2018-04-04T10:56:30.097Z,10.80
2018-04-04T10:57:30.099Z,10.60
2018-04-04T10:58:30.094Z,11.00
2018-04-04T10:59:30.096Z,11.20
2018-04-04T11:00:30.097Z,10.70
2018-04-04T11:01:30.096Z,10.80
2018-04-04T11:02:30.097Z,10.80
2018-04-04T11:03:30.096Z,10.80
2018-04-04T11:04:30.133Z,10.40
2018-04-04T11:05:30.097Z,10.80
2018-04-04T11:06:30.097Z,10.70
2018-04-04T11:07:30.096Z,10.10
2018-04-04T11:08:30.100Z,10.70
2018-04-04T11:09:30.100Z,10.10
2018-04-04T11:10:30.100Z,10.40
2018-04-04T11:11:30.099Z,10.20
2018-04-04T11:12:30.099Z,10.20
2018-04-04T11:13:30.096Z,11.20
2018-04-04T11:14:30.094Z,9.90
2018-04-04T11:15:30.094Z,10.70
2018-04-04T11:16:30.092Z,10.40
2018-04-04T11:17:30.127Z,10.70
2018-04-04T11:18:30.091Z,10.00
2018-04-04T11:19:30.092Z,11.10
2018-04-04T11:20:30.088Z,10.40
2018-04-04T11:21:30.138Z,10.70
2018-04-04T11:22:30.091Z,9.60
2018-04-04T11:23:30.092Z,10.30
2018-04-04T11:24:30.084Z,10.50
2018-04-04T11:25:30.084Z,10.80
2018-04-04T11:26:30.086Z,10.10
2018-04-04T11:27:30.081Z,11.80
2018-04-04T11:28:30.085Z,11.40
2018-04-04T11:29:30.083Z,11.40
2018-04-04T11:30:30.076Z,11.50
2018-04-04T11:31:30.075Z,11.80
2018-04-04T11:32:30.073Z,11.30
2018-04-04T11:33:30.072Z,12.00
2018-04-04T11:34:30.072Z,11.40
2018-04-04T11:35:30.068Z,10.80
2018-04-04T11:36:30.067Z,11.20
2018-04-04T11:37:30.065Z,10.40
2018-04-04T11:38:30.064Z,9.90
2018-04-04T11:39:30.061Z,10.00
2018-04-04T11:40:30.065Z,12.40
2018-04-04T11:41:30.063Z,11.80
2018-04-04T11:42:30.062Z,12.40
2018-04-04T11:43:30.062Z,12.10
2018-04-04T11:44:30.054Z,11.50
2018-04-04T11:45:30.053Z,11.00
2018-04-04T11:46:30.050Z,11.10
2018-04-04T11:47:30.048Z,10.80
2018-04-04T11:48:30.051Z,11.30
2018-04-04T11:49:30.051Z,10.80
2018-04-04T11:50:30.051Z,11.10
2018-04-04T11:51:30.059Z,11.50
2018-04-04T11:52:30.038Z,10.20
2018-04-04T11:53:30.038Z,11.30
2018-04-04T11:54:30.040Z,11.30
2018-04-04T11:55:30.043Z,11.40
2018-04-04T11:56:30.032Z,10.20
2018-04-04T11:57:30.032Z,10.50
2018-04-04T11:58:30.035Z,9.40
2018-04-04T11:59:30.027Z,9.60
2018-04-04T12:00:30.030Z,10.70
2018-04-04T12:01:30.028Z,11.00
2018-04-04T12:02:30.050Z,9.70
2018-04-04T12:03:30.020Z,9.70
2018-04-04T12:04:30.019Z,11.20
2018-04-04T12:05:30.018Z,10.10
2018-04-04T12:06:30.017Z,10.90
2018-04-04T12:07:30.019Z,10.80
2018-04-04T12:08:30.012Z,10.80
2018-04-04T12:09:30.010Z,10.70
2018-04-04T12:10:30.009Z,10.30
2018-04-04T12:11:30.006Z,10.50
2018-04-04T12:12:30.051Z,10.20
2018-04-04T12:13:30.007Z,9.90
2018-04-04T12:14:30.002Z,9.80
2018-04-04T12:15:29.998Z,10.80
2018-04-04T12:16:30.003Z,11.40
2018-04-04T12:17:29.997Z,10.80
2018-04-04T12:18:29.993Z,10.80
2018-04-04T12:19:29.992Z,10.60
2018-04-04T12:20:29.993Z,10.80
2018-04-04T12:21:29.993Z,10.40
2018-04-04T12:22:29.987Z,10.40
2018-04-04T12:23:29.988Z,10.80
2018-04-04T12:24:29.986Z,10.80
2018-04-04T12:25:29.988Z,10.70
2018-04-04T12:26:29.979Z,11.00
2018-04-04T12:27:29.977Z,10.50
2018-04-04T12:28:29.977Z,10.50
2018-04-04T12:29:29.973Z,9.60
2018-04-04T12:30:29.971Z,10.30
2018-04-04T12:31:29.969Z,10.60
2018-04-04T12:32:29.967Z,10.80
2018-04-04T12:33:29.966Z,10.70
2018-04-04T12:34:29.967Z,10.50
2018-04-04T12:35:29.964Z,10.20
2018-04-04T12:36:29.962Z,9.90
2018-04-04T12:37:29.956Z,10.10
2018-04-04T12:38:29.962Z,9.90
2018-04-04T12:39:29.957Z,10.20
2018-04-04T12:40:29.950Z,9.90
2018-04-04T12:41:29.948Z,10.20
2018-04-04T12:42:29.947Z,9.60
2018-04-04T12:43:29.944Z,9.50
2018-04-04T12:44:29.944Z,10.00
2018-04-04T12:45:29.941Z,9.50
2018-04-04T12:46:29.945Z,10.00
2018-04-04T12:47:29.937Z,9.50
2018-04-04T12:48:29.935Z,10.30
2018-04-04T12:49:29.933Z,10.20
2018-04-04T12:50:29.933Z,9.50
2018-04-04T12:51:29.930Z,9.70
2018-04-04T12:52:29.931Z,9.40
2018-04-04T12:53:29.933Z,9.80
2018-04-04T12:54:29.923Z,9.60
2018-04-04T12:55:29.928Z,9.40
2018-04-04T12:56:29.926Z,9.30
2018-04-04T12:57:29.926Z,9.60
2018-04-04T12:58:29.915Z,9.40
2018-04-04T12:59:29.914Z,9.30
2018-04-04T13:00:29.911Z,9.90
2018-04-04T13:01:29.909Z,10.30
2018-04-04T13:02:29.907Z,10.10
2018-04-04T13:03:29.905Z,10.40
2018-04-04T13:04:29.903Z,10.40
2018-04-04T13:05:29.901Z,9.90
2018-04-04T13:06:29.903Z,9.50
2018-04-04T13:07:29.901Z,9.50
2018-04-04T13:08:29.894Z,9.50
2018-04-04T13:09:29.893Z,9.10
2018-04-04T13:10:29.893Z,9.50
2018-04-04T13:11:29.893Z,9.50